createdAt,value
2022-10-15T00:01:32.510Z,38.05
2022-10-15T00:06:33.815Z,39.17
2022-10-15T00:09:00.766Z,37.22
2022-10-15T00:11:28.415Z,41.33
2022-10-15T00:14:01.842Z,36.78
2022-10-15T00:16:29.496Z,37.97
2022-10-15T00:18:57.446Z,42.08
2022-10-15T00:21:24.281Z,43.28
2022-10-15T00:23:51.074Z,38.67
2022-10-15T00:26:20.599Z,37.80
2022-10-15T00:28:49.887Z,36.00
2022-10-15T00:31:24.556Z,35.80
2022-10-15T00:33:54.873Z,36.90
2022-10-15T00:36:31.234Z,37.08
2022-10-15T00:39:00.914Z,35.40
2022-10-15T00:41:35.206Z,39.03
2022-10-15T00:44:22.039Z,36.45
2022-10-15T00:46:52.189Z,38.20
2022-10-15T00:49:25.507Z,39.75
2022-10-15T00:52:10.378Z,35.72
2022-10-15T00:55:16.839Z,40.78
2022-10-15T00:57:49.233Z,37.95
2022-10-15T01:00:17.179Z,37.08
2022-10-15T01:02:47.168Z,42.63
2022-10-15T01:05:16.278Z,40.42
2022-10-15T01:07:43.034Z,39.60
2022-10-15T01:10:10.428Z,36.53
2022-10-15T01:13:00.125Z,39.08
2022-10-15T01:15:33.711Z,43.47
2022-10-15T01:18:14.422Z,37.63
2022-10-15T01:21:02.177Z,37.67
2022-10-15T01:23:58.575Z,38.30
2022-10-15T01:27:06.263Z,34.92
2022-10-15T01:29:48.086Z,38.38
2022-10-15T01:32:17.689Z,39.78
2022-10-15T01:35:17.458Z,41.78
2022-10-15T01:38:10.259Z,37.50
2022-10-15T01:40:48.843Z,37.53
2022-10-15T01:43:24.999Z,37.65
2022-10-15T01:46:41.251Z,34.70
2022-10-15T01:49:13.360Z,35.83
2022-10-15T01:51:41.594Z,38.55
2022-10-15T01:54:12.669Z,37.65
2022-10-15T01:56:49.564Z,35.33
2022-10-15T02:01:54.999Z,34.60
2022-10-15T02:04:34.244Z,39.75
2022-10-15T02:07:12.899Z,36.45
2022-10-15T02:09:57.112Z,37.55
2022-10-15T02:12:37.974Z,34.10
2022-10-15T02:15:22.802Z,38.97
2022-10-15T02:18:04.514Z,33.45
2022-10-15T02:20:54.552Z,37.65
2022-10-15T02:23:40.284Z,36.53
2022-10-15T02:26:09.108Z,36.25
2022-10-15T02:28:37.141Z,37.53
2022-10-15T02:31:08.133Z,43.28
2022-10-15T02:33:35.868Z,35.83
2022-10-15T02:36:02.895Z,35.20
2022-10-15T02:38:33.213Z,34.15
2022-10-15T02:41:00.564Z,37.95
2022-10-15T02:43:27.351Z,38.90
2022-10-15T02:45:56.318Z,36.00
2022-10-15T02:48:23.209Z,40.97
2022-10-15T02:50:49.951Z,38.50
2022-10-15T02:53:16.662Z,36.97
2022-10-15T02:55:43.891Z,34.63
2022-10-15T02:58:11.812Z,34.85
2022-10-15T03:00:38.782Z,34.13
2022-10-15T03:03:05.611Z,31.73
2022-10-15T03:05:34.492Z,37.72
2022-10-15T03:08:03.874Z,35.17
2022-10-15T03:10:32.812Z,39.45
2022-10-15T03:13:07.308Z,42.85
2022-10-15T03:15:41.083Z,37.53
2022-10-15T03:18:10.895Z,37.03
2022-10-15T03:20:39.928Z,36.25
2022-10-15T03:23:09.217Z,39.22
2022-10-15T03:25:36.614Z,35.35
2022-10-15T03:28:04.922Z,39.22
2022-10-15T03:30:42.016Z,37.20
2022-10-15T03:33:09.409Z,33.17
2022-10-15T03:35:39.276Z,35.97
2022-10-15T03:38:07.683Z,35.95
2022-10-15T03:40:34.665Z,35.92
2022-10-15T03:43:15.589Z,37.78
2022-10-15T03:45:42.443Z,38.05
2022-10-15T03:48:19.603Z,34.22
2022-10-15T03:50:48.836Z,37.72
2022-10-15T03:53:16.013Z,35.85
2022-10-15T03:55:43.065Z,40.33
2022-10-15T03:58:12.108Z,31.95
2022-10-15T04:00:49.534Z,33.95
2022-10-15T04:03:16.784Z,34.47
2022-10-15T04:05:54.148Z,31.30
2022-10-15T04:08:24.123Z,34.17
2022-10-15T04:10:51.471Z,32.72
2022-10-15T04:13:20.876Z,31.80
2022-10-15T04:15:47.715Z,32.33
2022-10-15T04:18:21.058Z,34.40
2022-10-15T04:20:52.715Z,38.13
2022-10-15T04:23:22.526Z,37.75
2022-10-15T04:26:12.089Z,33.67
2022-10-15T04:28:39.001Z,41.67
2022-10-15T04:31:05.863Z,31.27
2022-10-15T04:33:32.641Z,32.67
2022-10-15T04:36:06.590Z,37.63
2022-10-15T04:38:57.037Z,35.30
2022-10-15T04:41:31.563Z,35.28
2022-10-15T04:44:03.157Z,37.50
2022-10-15T04:46:31.709Z,33.08
2022-10-15T04:49:02.900Z,34.22
2022-10-15T04:51:34.778Z,33.78
2022-10-15T04:56:57.594Z,34.28
2022-10-15T04:59:27.111Z,34.70
2022-10-15T05:02:12.768Z,35.85
2022-10-15T05:04:44.003Z,31.42
2022-10-15T05:07:10.720Z,38.25
2022-10-15T05:09:38.670Z,35.63
2022-10-15T05:12:06.215Z,37.92
2022-10-15T05:14:35.848Z,38.22
2022-10-15T05:17:10.041Z,34.08
2022-10-15T05:19:41.545Z,37.55
2022-10-15T05:22:15.927Z,31.33
2022-10-15T05:24:49.397Z,34.22
2022-10-15T05:27:32.834Z,29.38
2022-10-15T05:30:04.571Z,35.65
2022-10-15T05:32:53.017Z,32.08
2022-10-15T05:35:24.977Z,33.08
2022-10-15T05:37:54.733Z,30.98
2022-10-15T05:40:22.595Z,32.15
2022-10-15T05:43:04.643Z,32.95
2022-10-15T05:48:05.426Z,33.15
2022-10-15T05:50:32.756Z,34.80
2022-10-15T05:53:02.535Z,32.20
2022-10-15T05:55:37.444Z,32.47
2022-10-15T05:58:04.914Z,35.10
2022-10-15T06:00:39.648Z,32.78
2022-10-15T06:03:19.903Z,33.50
2022-10-15T06:05:46.700Z,32.72
2022-10-15T06:08:13.656Z,32.92
2022-10-15T06:10:40.314Z,33.83
2022-10-15T06:13:07.060Z,31.38
2022-10-15T06:15:41.827Z,32.90
2022-10-15T06:18:12.469Z,29.90
2022-10-15T06:20:43.996Z,32.47
2022-10-15T06:25:40.422Z,33.83
2022-10-15T06:28:14.435Z,36.63
2022-10-15T06:30:44.402Z,34.88
2022-10-15T06:33:16.201Z,33.42
2022-10-15T06:35:47.491Z,33.65
2022-10-15T06:38:14.148Z,33.20
2022-10-15T06:40:40.990Z,37.50
2022-10-15T06:43:11.615Z,36.83
2022-10-15T06:45:46.164Z,32.70
2022-10-15T06:48:23.493Z,37.80
2022-10-15T06:50:52.564Z,38.17
2022-10-15T06:53:19.346Z,38.72
2022-10-15T06:55:48.532Z,35.05
2022-10-15T06:58:20.540Z,30.80
2022-10-15T07:00:49.505Z,33.78
2022-10-15T07:03:20.959Z,37.20
2022-10-15T07:05:53.331Z,32.17
2022-10-15T07:08:21.479Z,31.80
2022-10-15T07:10:50.934Z,28.83
2022-10-15T07:13:17.604Z,35.03
2022-10-15T07:15:49.690Z,35.28
2022-10-15T07:18:21.747Z,30.00
2022-10-15T07:20:48.625Z,26.35
2022-10-15T07:23:15.398Z,27.98
2022-10-15T07:25:44.567Z,26.20
2022-10-15T07:28:13.733Z,25.15
2022-10-15T07:30:40.692Z,21.15
2022-10-15T07:33:10.148Z,27.25
2022-10-15T07:35:39.321Z,27.00
2022-10-15T07:38:06.014Z,25.40
2022-10-15T07:40:35.133Z,21.25
2022-10-15T07:43:04.357Z,22.80
2022-10-15T07:48:00.284Z,21.70
2022-10-15T07:50:29.303Z,25.15
2022-10-15T07:53:01.889Z,23.15
2022-10-15T07:55:28.601Z,25.35
2022-10-15T07:57:58.367Z,27.45
2022-10-15T08:00:25.425Z,21.17
2022-10-15T08:02:54.879Z,25.75
2022-10-15T08:05:21.628Z,19.85
2022-10-15T08:07:48.335Z,26.48
2022-10-15T08:10:15.292Z,25.67
2022-10-15T08:12:41.998Z,23.85
2022-10-15T08:15:08.975Z,22.60
2022-10-15T08:17:35.644Z,21.42
2022-10-15T08:20:05.195Z,29.83
2022-10-15T08:22:34.131Z,22.20
2022-10-15T08:25:00.830Z,26.80
2022-10-15T08:27:27.694Z,26.00
2022-10-15T08:30:02.058Z,24.33
2022-10-15T08:32:28.748Z,24.35
2022-10-15T08:34:58.078Z,18.48
2022-10-15T08:37:27.290Z,21.23
2022-10-15T08:39:56.124Z,17.10
2022-10-15T08:42:32.212Z,20.83
2022-10-15T08:45:02.267Z,26.20
2022-10-15T08:47:36.236Z,24.25
2022-10-15T08:50:35.807Z,21.40
2022-10-15T08:53:02.808Z,25.58
2022-10-15T08:55:35.754Z,18.40
2022-10-15T08:58:13.954Z,17.02
2022-10-15T09:00:43.570Z,25.58
2022-10-15T09:03:14.957Z,18.13
2022-10-15T09:05:50.895Z,20.65
2022-10-15T09:08:30.053Z,15.70
2022-10-15T09:11:14.236Z,16.58
2022-10-15T09:13:42.331Z,16.25
2022-10-15T09:16:34.401Z,19.92
2022-10-15T09:19:10.201Z,14.18
2022-10-15T09:21:39.351Z,17.92
2022-10-15T09:24:06.375Z,17.70
2022-10-15T09:26:57.903Z,14.90
2022-10-15T09:29:52.356Z,17.10
2022-10-15T09:32:37.710Z,18.02
2022-10-15T09:35:13.125Z,14.60
2022-10-15T09:38:49.107Z,14.30
2022-10-15T09:41:36.629Z,18.15
2022-10-15T09:44:05.742Z,15.70
2022-10-15T09:46:45.560Z,19.92
2022-10-15T09:49:33.875Z,14.60
2022-10-15T09:52:11.264Z,15.60
2022-10-15T09:54:45.643Z,12.52
2022-10-15T09:57:15.217Z,16.73
2022-10-15T09:59:56.755Z,11.95
2022-10-15T10:02:26.318Z,13.60
2022-10-15T10:04:56.637Z,13.52
2022-10-15T10:07:35.077Z,16.98
2022-10-15T10:10:25.848Z,11.60
2022-10-15T10:12:56.564Z,11.77
2022-10-15T10:15:30.189Z,11.45
2022-10-15T10:17:59.864Z,12.52
2022-10-15T10:20:36.115Z,10.45
2022-10-15T10:23:09.911Z,9.93
2022-10-15T10:25:42.500Z,13.00
2022-10-15T10:28:09.452Z,15.02
2022-10-15T10:30:40.387Z,12.55
2022-10-15T10:33:09.261Z,8.52
2022-10-15T10:35:50.804Z,9.60
2022-10-15T10:38:21.903Z,27.60
2022-10-15T10:40:56.028Z,7.75
2022-10-15T10:43:29.483Z,70.97
2022-10-15T10:46:04.175Z,23.38
2022-10-15T10:48:39.321Z,9.57
2022-10-15T10:51:18.248Z,11.45
2022-10-15T10:54:08.543Z,9.07
2022-10-15T10:56:45.165Z,22.13
2022-10-15T10:59:34.748Z,9.55
2022-10-15T11:02:08.769Z,10.82
2022-10-15T11:04:38.982Z,14.35
2022-10-15T11:07:08.625Z,16.20
2022-10-15T11:09:55.303Z,51.20
2022-10-15T11:12:51.037Z,12.52
2022-10-15T11:15:53.934Z,14.18
2022-10-15T11:18:41.397Z,10.27
2022-10-15T11:21:13.369Z,9.93
2022-10-15T11:23:43.487Z,10.30
2022-10-15T11:26:52.470Z,9.85
2022-10-15T11:30:10.615Z,8.75
2022-10-15T11:33:06.116Z,10.43
2022-10-15T11:35:52.807Z,5.18
2022-10-15T11:38:46.120Z,10.13
2022-10-15T11:41:48.009Z,7.88
2022-10-15T11:44:33.983Z,16.92
2022-10-15T11:47:24.299Z,5.68
2022-10-15T11:50:11.880Z,4.43
2022-10-15T11:52:59.046Z,7.53
2022-10-15T11:55:34.042Z,8.88
2022-10-15T11:58:06.233Z,9.85
2022-10-15T12:00:36.146Z,8.32
2022-10-15T12:03:11.103Z,6.32
2022-10-15T12:05:40.425Z,8.75
2022-10-15T12:08:12.929Z,6.82
2022-10-15T12:10:56.491Z,5.97
2022-10-15T12:13:34.789Z,8.25
2022-10-15T12:16:39.103Z,6.30
2022-10-15T12:19:27.154Z,7.22
2022-10-15T12:21:54.783Z,6.03
2022-10-15T12:24:40.916Z,14.15
2022-10-15T12:27:26.376Z,10.90
2022-10-15T12:30:13.183Z,11.05
2022-10-15T12:32:48.661Z,5.47
2022-10-15T12:35:17.477Z,4.97
2022-10-15T12:37:48.470Z,9.00
2022-10-15T12:40:21.152Z,9.20
2022-10-15T12:42:56.688Z,4.75
2022-10-15T12:45:41.972Z,8.57
2022-10-15T12:48:08.653Z,9.15
2022-10-15T12:50:42.545Z,6.25
2022-10-15T12:53:34.291Z,9.10
2022-10-15T12:56:13.752Z,7.28
2022-10-15T12:58:48.000Z,8.38
2022-10-15T13:01:16.935Z,4.85
2022-10-15T13:03:53.559Z,7.85
2022-10-15T13:11:34.664Z,13.30
2022-10-15T13:14:03.656Z,7.60
2022-10-15T13:16:33.624Z,4.95
2022-10-15T13:19:03.174Z,6.28
2022-10-15T13:21:52.713Z,9.10
2022-10-15T13:24:27.375Z,7.68
2022-10-15T13:26:59.801Z,10.30
2022-10-15T13:29:27.788Z,5.45
2022-10-15T13:31:57.762Z,10.82
2022-10-15T13:34:30.419Z,8.63
2022-10-15T13:37:03.430Z,5.15
2022-10-15T13:39:36.311Z,6.47
2022-10-15T13:42:16.846Z,9.30
2022-10-15T13:44:45.035Z,8.35
2022-10-15T13:47:39.200Z,8.27
2022-10-15T13:50:25.600Z,6.80
2022-10-15T13:53:02.914Z,11.50
2022-10-15T13:55:42.896Z,6.32
2022-10-15T13:58:09.528Z,6.20
2022-10-15T14:00:39.302Z,5.85
2022-10-15T14:03:20.591Z,9.25
2022-10-15T14:05:50.515Z,6.68
2022-10-15T14:08:31.470Z,12.45
2022-10-15T14:11:01.071Z,7.07
2022-10-15T14:13:30.275Z,9.60
2022-10-15T14:16:13.306Z,9.75
2022-10-15T14:18:48.185Z,5.35
2022-10-15T14:21:21.227Z,10.38
2022-10-15T14:23:49.269Z,8.65
2022-10-15T14:26:16.965Z,5.68
2022-10-15T14:28:50.923Z,6.15
2022-10-15T14:31:35.608Z,8.30
2022-10-15T14:34:38.664Z,4.25
2022-10-15T14:37:43.222Z,10.57
2022-10-15T14:40:10.777Z,5.50
2022-10-15T14:42:52.794Z,6.25
2022-10-15T14:45:24.005Z,7.63
2022-10-15T14:48:07.486Z,7.72
2022-10-15T14:50:35.704Z,8.68
2022-10-15T14:53:11.208Z,3.70
2022-10-15T14:55:43.139Z,6.32
2022-10-15T14:58:17.872Z,5.05
2022-10-15T15:00:47.147Z,6.47
2022-10-15T15:03:16.102Z,7.57
2022-10-15T15:05:50.391Z,12.55
2022-10-15T15:08:19.850Z,7.60
2022-10-15T15:10:50.302Z,8.82
2022-10-15T15:13:22.754Z,7.07
2022-10-15T15:15:52.314Z,5.95
2022-10-15T15:18:21.936Z,6.97
2022-10-15T15:20:50.256Z,7.88
2022-10-15T15:23:21.640Z,7.78
2022-10-15T15:25:51.004Z,7.97
2022-10-15T15:28:22.651Z,7.18
2022-10-15T15:30:59.840Z,8.73
2022-10-15T15:33:29.423Z,12.18
2022-10-15T15:36:09.597Z,6.03
2022-10-15T15:41:04.004Z,5.28
2022-10-15T15:43:30.895Z,8.93
2022-10-15T15:45:59.877Z,8.48
2022-10-15T15:48:26.550Z,8.43
2022-10-15T15:50:55.467Z,5.32
2022-10-15T15:53:24.803Z,7.63
2022-10-15T15:55:54.033Z,6.05
2022-10-15T16:00:49.429Z,7.68
2022-10-15T16:03:18.364Z,7.32
2022-10-15T16:05:45.221Z,6.47
2022-10-15T16:10:43.165Z,8.45
2022-10-15T16:13:12.363Z,7.15
2022-10-15T16:18:05.740Z,6.95
2022-10-15T16:20:39.317Z,15.90
2022-10-15T16:23:06.025Z,7.28
2022-10-15T16:25:32.914Z,8.70
2022-10-15T16:28:01.883Z,4.97
2022-10-15T16:30:28.892Z,18.48
2022-10-15T16:32:55.803Z,7.97
2022-10-15T16:35:22.719Z,8.25
2022-10-15T16:40:25.291Z,7.07
2022-10-15T16:42:56.884Z,7.43
2022-10-15T16:47:52.311Z,14.43
2022-10-15T16:50:21.834Z,16.80
2022-10-15T16:52:48.524Z,29.02
2022-10-15T16:55:16.797Z,44.40
2022-10-15T16:57:44.472Z,58.63
2022-10-15T17:00:12.024Z,58.78
2022-10-15T17:02:40.976Z,55.47
2022-10-15T17:05:08.234Z,59.17
2022-10-15T17:07:34.948Z,48.45
2022-10-15T17:10:04.134Z,40.97
2022-10-15T17:14:59.251Z,36.72
2022-10-15T17:17:28.313Z,30.13
2022-10-15T17:22:23.929Z,22.90
2022-10-15T17:24:51.076Z,17.63
2022-10-15T17:27:20.202Z,12.27
2022-10-15T17:29:46.911Z,15.60
2022-10-15T17:32:13.655Z,13.80
2022-10-15T17:34:45.153Z,10.38
2022-10-15T17:37:14.890Z,9.50
2022-10-15T17:39:45.101Z,11.30
2022-10-15T17:42:16.124Z,13.45
2022-10-15T17:44:42.852Z,10.32
2022-10-15T17:49:45.813Z,9.00
2022-10-15T17:52:12.947Z,10.35
2022-10-15T17:54:39.730Z,7.78
2022-10-15T17:57:06.516Z,10.35
2022-10-15T17:59:33.214Z,14.25
2022-10-15T18:02:02.515Z,10.80
2022-10-15T18:04:36.682Z,10.13
2022-10-15T18:07:03.432Z,15.25
2022-10-15T18:09:32.687Z,11.57
2022-10-15T18:12:01.143Z,10.95
2022-10-15T18:14:33.110Z,10.70
2022-10-15T18:17:00.125Z,9.73
2022-10-15T18:19:29.539Z,9.82
2022-10-15T18:21:57.870Z,14.15
2022-10-15T18:24:24.836Z,18.45
2022-10-15T18:26:52.119Z,10.25
2022-10-15T18:29:22.523Z,15.70
2022-10-15T18:31:57.118Z,10.40
2022-10-15T18:34:25.984Z,12.80
2022-10-15T18:36:54.928Z,12.82
2022-10-15T18:39:25.613Z,8.95
2022-10-15T18:41:52.334Z,12.82
2022-10-15T18:44:21.449Z,11.15
2022-10-15T18:49:16.988Z,12.32
2022-10-15T18:51:46.154Z,13.93
2022-10-15T18:56:42.267Z,15.75
2022-10-15T19:01:41.839Z,19.33
2022-10-15T19:04:18.724Z,14.25
2022-10-15T19:06:50.401Z,14.70
2022-10-15T19:09:29.377Z,18.13
2022-10-15T19:12:03.250Z,11.40
2022-10-15T19:14:30.199Z,14.20
2022-10-15T19:17:00.222Z,13.25
2022-10-15T19:19:29.665Z,11.35
2022-10-15T19:21:57.096Z,16.80
2022-10-15T19:24:24.573Z,12.98
2022-10-15T19:26:52.339Z,16.40
2022-10-15T19:29:19.651Z,13.75
2022-10-15T19:31:49.119Z,18.23
2022-10-15T19:34:15.944Z,13.02
2022-10-15T19:36:50.649Z,15.70
2022-10-15T19:39:21.201Z,12.93
2022-10-15T19:41:49.281Z,11.88
2022-10-15T19:44:17.379Z,13.43
2022-10-15T19:46:47.371Z,10.40
2022-10-15T19:49:14.993Z,12.07
2022-10-15T19:51:46.255Z,12.43
2022-10-15T19:54:16.608Z,11.82
2022-10-15T19:56:45.824Z,13.18
2022-10-15T20:01:41.528Z,14.57
2022-10-15T20:04:13.035Z,14.15
2022-10-15T20:06:40.890Z,15.93
2022-10-15T20:09:10.908Z,11.27
2022-10-15T20:11:38.017Z,19.58
2022-10-15T20:14:04.793Z,10.82
2022-10-15T20:16:33.406Z,14.38
2022-10-15T20:19:05.299Z,13.88
2022-10-15T20:21:36.930Z,17.00
2022-10-15T20:24:06.255Z,15.15
2022-10-15T20:28:59.747Z,13.40
2022-10-15T20:31:33.172Z,15.52
2022-10-15T20:34:03.409Z,11.20
2022-10-15T20:36:30.589Z,10.55
2022-10-15T20:38:59.399Z,13.60
2022-10-15T20:41:26.384Z,13.75
2022-10-15T20:43:56.564Z,16.90
2022-10-15T20:46:34.535Z,15.60
2022-10-15T20:49:09.375Z,12.82
2022-10-15T20:51:37.647Z,16.30
2022-10-15T20:54:09.661Z,12.95
2022-10-15T20:56:36.556Z,12.95
2022-10-15T20:59:05.027Z,10.85
2022-10-15T21:01:32.929Z,14.63
2022-10-15T21:03:59.817Z,12.40
2022-10-15T21:06:26.543Z,16.55
2022-10-15T21:08:53.386Z,16.20
2022-10-15T21:11:22.796Z,18.08
2022-10-15T21:13:54.821Z,14.70
2022-10-15T21:16:24.555Z,10.25
2022-10-15T21:18:54.357Z,18.02
2022-10-15T21:21:21.524Z,12.80
2022-10-15T21:23:48.770Z,10.45
2022-10-15T21:26:17.505Z,11.35
2022-10-15T21:28:45.300Z,14.50
2022-10-15T21:31:15.888Z,12.70
2022-10-15T21:33:46.151Z,11.00
2022-10-15T21:36:26.114Z,12.35
2022-10-15T21:38:58.622Z,10.90
2022-10-15T21:41:26.681Z,11.32
2022-10-15T21:43:53.964Z,12.98
2022-10-15T21:46:23.199Z,13.75
2022-10-15T21:51:23.832Z,16.75
2022-10-15T21:53:58.689Z,14.70
2022-10-15T21:56:29.154Z,18.35
2022-10-15T21:58:55.878Z,13.45
2022-10-15T22:01:24.640Z,11.27
2022-10-15T22:03:55.769Z,9.90
2022-10-15T22:06:23.146Z,11.18
2022-10-15T22:08:52.405Z,15.80
2022-10-15T22:11:20.824Z,13.55
2022-10-15T22:13:53.108Z,14.57
2022-10-15T22:18:46.990Z,8.32
2022-10-15T22:21:19.340Z,11.40
2022-10-15T22:23:58.160Z,11.38
2022-10-15T22:26:35.997Z,15.52
2022-10-15T22:29:05.008Z,11.73
2022-10-15T22:31:32.352Z,9.55
2022-10-15T22:33:59.287Z,11.18
2022-10-15T22:36:30.796Z,14.63
2022-10-15T22:39:01.605Z,12.40
2022-10-15T22:41:29.883Z,12.80
2022-10-15T22:43:56.935Z,12.18
2022-10-15T22:46:30.272Z,9.63
2022-10-15T22:48:59.190Z,10.68
2022-10-15T22:51:28.087Z,11.60
2022-10-15T22:53:55.926Z,11.73
2022-10-15T22:56:23.011Z,9.68
2022-10-15T22:58:52.397Z,14.15
2022-10-15T23:01:30.973Z,6.43
2022-10-15T23:04:01.866Z,9.10
2022-10-15T23:06:32.044Z,10.18
2022-10-15T23:09:01.712Z,13.60
2022-10-15T23:11:33.750Z,13.05
2022-10-15T23:14:04.020Z,11.75
2022-10-15T23:16:39.973Z,18.35
2022-10-15T23:19:10.825Z,10.07
2022-10-15T23:21:51.027Z,12.35
2022-10-15T23:24:24.725Z,8.35
2022-10-15T23:26:54.192Z,13.82
2022-10-15T23:29:25.017Z,9.98
2022-10-15T23:31:52.306Z,10.57
2022-10-15T23:34:23.440Z,12.30
2022-10-15T23:36:50.743Z,8.05
2022-10-15T23:39:23.412Z,8.45
2022-10-15T23:41:53.019Z,9.88
2022-10-15T23:44:20.333Z,9.45
2022-10-15T23:46:52.062Z,11.48
2022-10-15T23:49:23.387Z,7.72
2022-10-15T23:51:50.240Z,6.47
2022-10-15T23:54:18.310Z,10.80
2022-10-15T23:56:46.202Z,9.05
2022-10-15T23:59:13.276Z,9.25
